Time;durP1;ratioP1;P1;durP2;ratioP2;P2;SDS_P1;SDS_P2;PMS_P1;PMS_P2;Temp;Humidity;BMP_temperature;BMP_pressure;BME280_temperature;BME280_humidity;BME280_pressure;Samples;Min_cycle;Max_cycle;Signal;HPM_P1;HPM_P2
2023/08/01 00:01:50;;;;;;;8.80;4.00;;;19.40;91.60;;;;;;5077994;28;20067;-72
2023/08/01 00:04:16;;;;;;;11.57;4.10;;;19.40;91.40;;;;;;5073843;28;20033;-77
2023/08/01 00:06:42;;;;;;;6.93;3.60;;;19.30;91.60;;;;;;5074205;28;21326;-66
2023/08/01 00:09:07;;;;;;;10.73;4.10;;;19.20;92.00;;;;;;5070336;28;20039;-71
2023/08/01 00:11:33;;;;;;;11.57;4.50;;;19.20;91.70;;;;;;5058921;28;20048;-66
2023/08/01 00:13:58;;;;;;;7.57;4.13;;;19.20;91.80;;;;;;5058286;28;20498;-68
2023/08/01 00:16:24;;;;;;;13.30;4.37;;;19.20;91.90;;;;;;5067400;28;20028;-66
2023/08/01 00:18:50;;;;;;;12.53;4.03;;;19.20;91.60;;;;;;5073125;28;20277;-66
2023/08/01 00:21:15;;;;;;;8.27;4.43;;;19.20;91.40;;;;;;5076189;28;20028;-66
2023/08/01 00:23:41;;;;;;;9.32;4.20;;;19.20;91.10;;;;;;5073046;28;20035;-72
2023/08/01 00:26:06;;;;;;;8.77;4.83;;;19.30;91.10;;;;;;5071182;28;20048;-69
2023/08/01 00:28:32;;;;;;;15.90;4.43;;;19.10;91.70;;;;;;5060894;28;20504;-66
2023/08/01 00:31:05;;;;;;;6.80;4.60;;;19.00;92.20;;;;;;5077031;28;20028;-78
2023/08/01 00:33:31;;;;;;;11.93;4.50;;;19.00;92.30;;;;;;5071975;28;20462;-75
2023/08/01 00:35:56;;;;;;;9.17;4.07;;;18.90;92.70;;;;;;5082308;28;20122;-77
2023/08/01 00:38:22;;;;;;;7.93;4.90;;;19.00;92.30;;;;;;5076652;28;20036;-76
2023/08/01 00:40:48;;;;;;;7.33;4.30;;;18.90;92.50;;;;;;5068617;28;20024;-77
2023/08/01 00:43:13;;;;;;;7.40;4.10;;;18.80;93.40;;;;;;5077678;28;20532;-72
2023/08/01 00:45:39;;;;;;;8.10;4.60;;;18.70;93.60;;;;;;5076426;28;20043;-75
2023/08/01 00:48:05;;;;;;;6.00;3.95;;;18.70;93.60;;;;;;5069963;28;20055;-78
2023/08/01 00:50:30;;;;;;;10.50;4.38;;;18.60;93.90;;;;;;5064599;28;20078;-79
2023/08/01 00:52:56;;;;;;;7.03;3.90;;;18.50;94.10;;;;;;5073988;28;20024;-79
2023/08/01 00:55:23;;;;;;;8.90;4.07;;;18.50;94.10;;;;;;5070955;28;20025;-74
2023/08/01 00:57:48;;;;;;;8.65;4.47;;;18.50;94.40;;;;;;5070281;28;20031;-78
2023/08/01 01:00:51;;;;;;;6.87;4.27;;;18.50;94.20;;;;;;5071377;28;20035;-76
2023/08/01 01:03:18;;;;;;;7.07;4.07;;;18.50;94.10;;;;;;5071961;28;20099;-72
2023/08/01 01:05:52;;;;;;;9.40;4.93;;;18.60;94.20;;;;;;5071147;28;20142;-76
2023/08/01 01:08:18;;;;;;;8.13;4.97;;;18.60;94.00;;;;;;5071602;28;20030;-76
2023/08/01 01:10:43;;;;;;;7.82;4.20;;;18.60;94.00;;;;;;5069641;28;20023;-76
2023/08/01 01:13:09;;;;;;;9.17;4.90;;;18.50;94.60;;;;;;5072155;28;20031;-67
2023/08/01 01:15:34;;;;;;;7.97;4.73;;;18.60;94.40;;;;;;5070295;28;20472;-74
2023/08/01 01:18:00;;;;;;;8.20;4.27;;;18.50;94.30;;;;;;5073803;28;20020;-68
2023/08/01 01:20:26;;;;;;;11.03;4.60;;;18.50;94.10;;;;;;5075490;28;20043;-73
2023/08/01 01:22:54;;;;;;;8.53;4.43;;;18.40;94.50;;;;;;5071095;28;20029;-71
2023/08/01 01:25:21;;;;;;;8.65;4.65;;;18.40;94.70;;;;;;5068344;28;20514;-72
2023/08/01 01:27:49;;;;;;;7.78;4.57;;;18.30;95.30;;;;;;5074396;28;20016;-69
2023/08/01 01:30:16;;;;;;;8.07;4.75;;;18.20;95.40;;;;;;5071708;28;20024;-73
2023/08/01 01:32:41;;;;;;;;;;;18.30;95.50;;;;;;5069427;28;20055;-73
2023/08/01 01:35:07;;;;;;;9.68;4.57;;;18.30;95.20;;;;;;5065521;28;19989;-71
2023/08/01 01:37:33;;;;;;;13.77;5.57;;;18.30;95.10;;;;;;5068931;28;20094;-73
2023/08/01 01:39:58;;;;;;;14.93;4.83;;;18.30;95.10;;;;;;5076996;28;20036;-74
2023/08/01 01:42:24;;;;;;;9.97;4.77;;;18.30;95.40;;;;;;5074074;28;20020;-78
2023/08/01 01:44:49;;;;;;;8.23;4.90;;;18.30;95.70;;;;;;5078469;28;20040;-79
2023/08/01 01:47:15;;;;;;;11.73;4.90;;;18.30;95.50;;;;;;5071085;28;20023;-79
2023/08/01 01:49:40;;;;;;;11.20;4.20;;;18.20;95.50;;;;;;5071500;28;20099;-67
2023/08/01 01:52:06;;;;;;;7.07;4.33;;;18.20;96.70;;;;;;5081039;28;20509;-70
2023/08/01 01:54:32;;;;;;;6.68;4.72;;;18.30;96.30;;;;;;5065571;28;20060;-73
2023/08/01 01:56:57;;;;;;;9.67;4.43;;;18.30;96.00;;;;;;5071174;28;20024;-74
2023/08/01 01:59:23;;;;;;;12.03;4.43;;;18.20;96.70;;;;;;5075792;28;20032;-69
2023/08/01 02:01:48;;;;;;;16.87;4.50;;;18.30;96.10;;;;;;5070028;28;20027;-74
2023/08/01 02:04:14;;;;;;;10.37;5.33;;;18.20;96.30;;;;;;5066258;28;20533;-68
2023/08/01 02:06:39;;;;;;;14.37;4.43;;;18.20;96.20;;;;;;5075896;28;20066;-67
2023/08/01 02:09:06;;;;;;;10.27;4.80;;;18.10;96.40;;;;;;5073812;28;20502;-79
2023/08/01 02:11:31;;;;;;;7.30;3.75;;;18.10;96.40;;;;;;5066092;28;20032;-75
2023/08/01 02:13:57;;;;;;;9.93;4.83;;;17.90;97.20;;;;;;5071619;28;20098;-79
2023/08/01 02:16:22;;;;;;;11.67;4.97;;;17.80;97.40;;;;;;5074538;28;20028;-72
2023/08/01 02:18:48;;;;;;;9.10;4.20;;;17.90;97.50;;;;;;5074185;28;20032;-68
2023/08/01 02:21:14;;;;;;;7.50;4.40;;;17.70;97.80;;;;;;5069240;28;20461;-72
2023/08/01 02:23:39;;;;;;;11.77;4.63;;;17.70;98.10;;;;;;5076278;28;20029;-72
2023/08/01 02:26:07;;;;;;;10.70;6.37;;;17.70;98.20;;;;;;5076830;28;20442;-68
2023/08/01 02:28:32;;;;;;;11.63;5.15;;;17.70;98.40;;;;;;5074393;28;20036;-65
2023/08/01 02:30:58;;;;;;;11.07;4.80;;;17.80;98.30;;;;;;5071396;28;20862;-67
2023/08/01 02:33:24;;;;;;;7.20;4.87;;;17.70;98.30;;;;;;5069606;28;20060;-71
2023/08/01 02:35:49;;;;;;;7.70;4.73;;;17.90;99.00;;;;;;5068798;28;20060;-72
2023/08/01 02:38:15;;;;;;;8.27;4.70;;;17.90;97.60;;;;;;5072577;28;20028;-77
2023/08/01 02:40:40;;;;;;;8.53;5.00;;;17.80;98.20;;;;;;5072876;28;20579;-74
2023/08/01 02:43:06;;;;;;;9.07;4.33;;;17.80;98.20;;;;;;5065900;28;20101;-77
2023/08/01 02:45:31;;;;;;;8.30;4.93;;;17.80;98.20;;;;;;5066007;28;20039;-73
2023/08/01 02:47:57;;;;;;;8.17;4.97;;;17.70;98.80;;;;;;5073856;28;20463;-77
2023/08/01 02:50:22;;;;;;;9.30;4.80;;;17.70;99.10;;;;;;5074389;28;20055;-79
2023/08/01 02:52:48;;;;;;;10.77;4.67;;;17.60;99.20;;;;;;5073700;28;20442;-73
2023/08/01 02:55:14;;;;;;;8.27;4.80;;;17.70;99.00;;;;;;5070572;28;20107;-67
2023/08/01 02:57:39;;;;;;;7.93;4.43;;;17.70;99.30;;;;;;5071528;28;20036;-74
2023/08/01 03:00:05;;;;;;;6.43;4.30;;;17.60;99.80;;;;;;5068797;28;20024;-74
2023/08/01 03:02:32;;;;;;;9.50;5.18;;;17.50;99.90;;;;;;5059931;28;20075;-69
2023/08/01 03:04:57;;;;;;;7.05;4.43;;;17.60;99.90;;;;;;5070988;28;20039;-67
2023/08/01 03:07:23;;;;;;;7.83;5.00;;;17.60;99.70;;;;;;5072022;28;20561;-69
2023/08/01 03:09:49;;;;;;;9.47;5.17;;;17.70;99.40;;;;;;5080084;28;20027;-70
2023/08/01 03:12:14;;;;;;;7.43;4.95;;;17.50;99.80;;;;;;5075444;28;20032;-74
2023/08/01 03:14:43;;;;;;;9.37;5.03;;;17.60;99.70;;;;;;5077717;28;20037;-79
2023/08/01 03:17:08;;;;;;;9.10;4.72;;;17.60;99.60;;;;;;5069820;28;20075;-76
2023/08/01 03:19:34;;;;;;;10.40;5.57;;;17.50;99.50;;;;;;5076682;28;20444;-79
2023/08/01 03:22:00;;;;;;;9.03;4.90;;;17.60;99.60;;;;;;5072706;28;20024;-74
2023/08/01 03:24:26;;;;;;;7.45;4.57;;;17.50;99.50;;;;;;5069104;28;20510;-78
2023/08/01 03:26:51;;;;;;;8.80;4.93;;;17.60;99.40;;;;;;5070670;28;20036;-77
2023/08/01 03:29:17;;;;;;;8.73;5.30;;;17.60;99.20;;;;;;5079749;28;20016;-69
2023/08/01 03:31:42;;;;;;;7.47;5.10;;;17.60;99.10;;;;;;5062418;28;20181;-74
2023/08/01 03:34:08;;;;;;;11.57;5.70;;;17.70;99.00;;;;;;5073636;28;20020;-71
2023/08/01 03:36:35;;;;;;;10.57;5.43;;;17.80;98.30;;;;;;5069135;28;20407;-74
2023/08/01 03:39:00;;;;;;;10.13;6.03;;;17.70;98.40;;;;;;5074678;28;20081;-79
2023/08/01 03:41:26;;;;;;;7.63;5.00;;;17.80;98.80;;;;;;5065462;28;20502;-79
2023/08/01 03:43:51;;;;;;;14.30;5.37;;;17.70;98.60;;;;;;5063767;28;20373;-74
2023/08/01 03:46:17;;;;;;;10.70;5.57;;;17.80;98.90;;;;;;5059481;28;20032;-73
2023/08/01 03:48:43;;;;;;;11.63;4.88;;;17.80;98.70;;;;;;5067126;28;20366;-79
2023/08/01 03:51:09;;;;;;;12.50;5.75;;;17.80;98.40;;;;;;5068232;28;20044;-80
2023/08/01 03:53:36;;;;;;;9.60;4.90;;;17.80;99.30;;;;;;5066329;28;20492;-79
2023/08/01 03:56:01;;;;;;;8.13;5.00;;;17.80;99.00;;;;;;5064810;28;20836;-79
2023/08/01 03:58:27;;;;;;;7.73;5.03;;;17.80;98.50;;;;;;5065064;28;20044;-72
2023/08/01 04:00:53;;;;;;;9.43;5.50;;;17.60;99.50;;;;;;5070629;28;20039;-74
2023/08/01 04:03:19;;;;;;;13.25;5.32;;;17.70;98.80;;;;;;5067680;28;20094;-71
2023/08/01 04:05:44;;;;;;;8.70;5.30;;;17.70;98.90;;;;;;5065574;28;20035;-68
2023/08/01 04:08:10;;;;;;;11.80;4.80;;;17.80;98.20;;;;;;5060699;28;20020;-66
2023/08/01 04:10:36;;;;;;;7.73;4.30;;;17.80;97.90;;;;;;5058414;28;20021;-65
2023/08/01 04:13:01;;;;;;;11.30;4.77;;;17.90;96.60;;;;;;5064511;28;20488;-71
2023/08/01 04:15:27;;;;;;;11.30;4.80;;;18.10;95.80;;;;;;5058916;28;20029;-69
2023/08/01 04:17:52;;;;;;;9.73;5.63;;;18.20;95.30;;;;;;5066017;28;20543;-68
2023/08/01 04:20:18;;;;;;;11.30;5.00;;;18.30;94.30;;;;;;5068340;28;20518;-66
2023/08/01 04:22:43;;;;;;;12.23;5.17;;;18.30;94.60;;;;;;5066292;28;20035;-73
2023/08/01 04:25:09;;;;;;;8.57;5.20;;;18.40;94.00;;;;;;5064162;28;20040;-77
2023/08/01 04:27:35;;;;;;;7.70;4.47;;;18.40;95.10;;;;;;5077756;28;20024;-68
2023/08/01 04:30:00;;;;;;;8.93;5.23;;;18.50;94.20;;;;;;5064531;28;20028;-68
2023/08/01 04:32:26;;;;;;;7.38;4.57;;;18.50;94.60;;;;;;5070914;28;20032;-68
2023/08/01 04:34:52;;;;;;;8.93;5.60;;;18.50;95.80;;;;;;5051400;28;20063;-71
2023/08/01 04:37:20;;;;;;;10.97;4.87;;;18.40;95.00;;;;;;5058238;28;20033;-69
2023/08/01 04:39:46;;;;;;;7.95;5.05;;;18.40;95.80;;;;;;5068526;28;20039;-71
2023/08/01 04:42:12;;;;;;;8.70;5.20;;;18.50;95.80;;;;;;5061356;28;20012;-71
2023/08/01 04:44:37;;;;;;;10.55;4.88;;;18.60;95.60;;;;;;5068316;28;20044;-74
2023/08/01 04:47:03;;;;;;;10.17;4.83;;;18.60;96.20;;;;;;5066169;28;20749;-75
2023/08/01 04:49:29;;;;;;;13.15;4.40;;;18.60;97.40;;;;;;5064884;28;20033;-82
2023/08/01 04:51:56;;;;;;;9.40;4.03;;;18.60;97.40;;;;;;5070869;28;20036;-77
2023/08/01 04:54:21;;;;;;;11.00;4.68;;;18.60;97.90;;;;;;5054328;28;20024;-71
2023/08/01 04:56:47;;;;;;;13.10;4.23;;;18.60;98.40;;;;;;5067271;28;20034;-76
2023/08/01 04:59:12;;;;;;;6.60;4.60;;;18.60;98.00;;;;;;5069937;28;20248;-80
2023/08/01 05:01:38;;;;;;;18.93;4.37;;;18.60;98.50;;;;;;5070221;28;20082;-78
2023/08/01 05:04:03;;;;;;;15.47;5.47;;;18.60;98.30;;;;;;5065427;28;20020;-65
2023/08/01 05:06:29;;;;;;;9.70;4.40;;;18.70;98.60;;;;;;5068370;28;20039;-70
2023/08/01 05:08:55;;;;;;;8.17;4.80;;;18.70;98.50;;;;;;5068043;28;20462;-69
2023/08/01 05:11:20;;;;;;;7.20;4.33;;;18.80;98.30;;;;;;5055386;28;20056;-70
2023/08/01 05:13:46;;;;;;;8.60;4.93;;;18.90;97.80;;;;;;5047289;28;20024;-78
2023/08/01 05:16:12;;;;;;;9.00;4.77;;;19.00;97.50;;;;;;5059928;28;20064;-73
2023/08/01 05:18:37;;;;;;;16.33;4.57;;;19.00;97.60;;;;;;5067029;28;20377;-79
2023/08/01 05:21:03;;;;;;;12.30;4.60;;;19.00;98.60;;;;;;5062731;28;20531;-80
2023/08/01 05:23:29;;;;;;;12.60;5.17;;;19.20;98.60;;;;;;5057285;28;20032;-79
2023/08/01 05:25:55;;;;;;;15.02;5.18;;;19.60;96.40;;;;;;5057768;28;20036;-75
2023/08/01 05:28:20;;;;;;;12.37;4.87;;;19.60;97.90;;;;;;5061784;28;20100;-80
2023/08/01 05:30:47;;;;;;;18.03;5.47;;;19.40;98.60;;;;;;5067756;28;20122;-77
2023/08/01 05:33:12;;;;;;;10.35;5.00;;;19.20;97.50;;;;;;5067643;28;20024;-78
2023/08/01 05:35:38;;;;;;;17.33;5.10;;;19.20;99.20;;;;;;5060820;28;20044;-79
2023/08/01 05:38:03;;;;;;;17.40;5.07;;;19.20;99.60;;;;;;5062102;28;20111;-73
2023/08/01 05:40:29;;;;;;;6.80;4.27;;;19.20;99.90;;;;;;5068791;28;20029;-77
2023/08/01 05:42:55;;;;;;;7.83;4.43;;;19.10;96.90;;;;;;5058606;28;20027;-70
2023/08/01 05:45:20;;;;;;;14.40;5.27;;;19.10;97.70;;;;;;5060709;28;20037;-75
2023/08/01 05:47:47;;;;;;;17.15;5.68;;;19.20;96.80;;;;;;5065546;28;20131;-73
2023/08/01 05:50:13;;;;;;;11.40;5.13;;;19.50;99.50;;;;;;5063827;28;20085;-74
2023/08/01 05:52:38;;;;;;;10.87;4.90;;;19.60;98.80;;;;;;5065808;28;20028;-66
2023/08/01 05:55:04;;;;;;;9.30;5.57;;;19.70;95.20;;;;;;5064803;28;20036;-74
2023/08/01 05:57:30;;;;;;;9.93;5.20;;;19.70;97.70;;;;;;5065576;28;20039;-74
2023/08/01 05:59:56;;;;;;;14.33;5.07;;;19.90;97.80;;;;;;5072906;28;20444;-78
2023/08/01 06:02:21;;;;;;;10.33;5.10;;;20.00;97.00;;;;;;5056993;28;20723;-75
2023/08/01 06:04:47;;;;;;;15.43;6.00;;;19.90;97.90;;;;;;5062358;28;20044;-77
2023/08/01 06:07:12;;;;;;;10.30;5.43;;;20.00;98.20;;;;;;5066043;28;20103;-80
2023/08/01 06:09:38;;;;;;;9.83;5.47;;;20.00;96.70;;;;;;5069058;28;20032;-75
2023/08/01 06:12:04;;;;;;;12.33;5.43;;;19.90;97.70;;;;;;5061399;28;20558;-68
2023/08/01 06:14:30;;;;;;;9.00;5.68;;;19.80;96.20;;;;;;5063340;28;20104;-69
2023/08/01 06:16:55;;;;;;;8.33;5.17;;;19.80;98.70;;;;;;5064599;28;20107;-74
2023/08/01 06:19:21;;;;;;;9.83;5.10;;;19.70;96.50;;;;;;5066265;28;20351;-74
2023/08/01 06:21:47;;;;;;;12.73;5.70;;;19.70;97.70;;;;;;5064979;28;20028;-73
2023/08/01 06:24:13;;;;;;;13.85;6.50;;;19.70;98.80;;;;;;5063228;28;20032;-68
2023/08/01 06:26:38;;;;;;;8.75;5.07;;;19.80;99.90;;;;;;5058186;28;20048;-66
2023/08/01 06:29:04;;;;;;;12.77;5.33;;;19.80;98.80;;;;;;5063872;28;20106;-67
2023/08/01 06:31:30;;;;;;;13.82;5.97;;;19.70;99.60;;;;;;5057629;28;20044;-69
2023/08/01 06:33:55;;;;;;;14.53;5.57;;;19.70;99.90;;;;;;5044917;28;20021;-80
2023/08/01 06:36:21;;;;;;;8.73;5.03;;;19.70;99.90;;;;;;5062147;28;20112;-78
2023/08/01 06:38:47;;;;;;;9.17;5.17;;;19.60;99.90;;;;;;5048719;28;20515;-67
2023/08/01 06:41:13;;;;;;;10.52;5.32;;;19.60;99.90;;;;;;5070674;28;20025;-75
2023/08/01 06:43:38;;;;;;;12.07;5.20;;;19.70;99.90;;;;;;5061535;28;20073;-65
2023/08/01 06:46:04;;;;;;;8.03;5.23;;;19.60;99.90;;;;;;5060891;28;20039;-67
2023/08/01 06:48:34;;;;;;;14.70;5.75;;;19.70;99.90;;;;;;5072504;28;20108;-66
2023/08/01 06:51:01;;;;;;;10.70;5.70;;;19.70;99.90;;;;;;5066750;28;20735;-68
2023/08/01 06:53:26;;;;;;;;;;;20.00;99.90;;;;;;5064417;28;20523;-67
2023/08/01 06:55:52;;;;;;;13.60;5.45;;;20.10;99.90;;;;;;5069337;28;20035;-70
2023/08/01 06:58:17;;;;;;;17.07;6.03;;;20.00;99.90;;;;;;5064964;28;20119;-68
2023/08/01 07:00:44;;;;;;;13.20;4.90;;;20.10;98.50;;;;;;5067021;28;20036;-75
2023/08/01 07:03:09;;;;;;;17.05;5.13;;;20.10;96.00;;;;;;5059082;28;20035;-74
2023/08/01 07:05:35;;;;;;;13.47;5.17;;;20.20;96.40;;;;;;5074414;28;20028;-69
2023/08/01 07:08:01;;;;;;;10.10;5.07;;;20.20;97.90;;;;;;5067902;28;20031;-70
2023/08/01 07:10:26;;;;;;;9.33;5.30;;;20.30;93.40;;;;;;5067081;28;20490;-75
2023/08/01 07:12:52;;;;;;;10.03;4.87;;;20.50;92.50;;;;;;5061641;28;20099;-76
2023/08/01 07:15:17;;;;;;;10.43;4.80;;;20.60;94.40;;;;;;5060970;28;20036;-70
2023/08/01 07:17:43;;;;;;;11.93;5.60;;;20.80;98.00;;;;;;5065022;28;20047;-70
2023/08/01 07:20:09;;;;;;;10.93;5.80;;;20.80;98.80;;;;;;5070662;28;20143;-73
2023/08/01 07:22:35;;;;;;;15.10;5.85;;;20.80;95.90;;;;;;5060506;28;20032;-67
2023/08/01 07:25:00;;;;;;;10.57;5.20;;;20.90;97.40;;;;;;5062664;28;20053;-72
2023/08/01 07:27:26;;;;;;;11.80;5.07;;;21.00;95.60;;;;;;5069300;28;20025;-77
2023/08/01 07:29:51;;;;;;;12.55;5.60;;;21.10;93.60;;;;;;5051801;28;20487;-76
2023/08/01 07:32:17;;;;;;;9.83;5.43;;;21.20;92.80;;;;;;5050055;28;20028;-73
2023/08/01 07:34:43;;;;;;;9.47;5.83;;;21.40;93.10;;;;;;5062668;28;20380;-74
2023/08/01 07:37:08;;;;;;;13.20;5.33;;;21.50;93.20;;;;;;5062068;28;20036;-75
2023/08/01 07:39:34;;;;;;;10.73;6.15;;;21.40;91.50;;;;;;5062989;28;20036;-76
2023/08/01 07:42:00;;;;;;;10.38;5.28;;;21.70;91.70;;;;;;5060337;28;20033;-77
2023/08/01 07:44:26;;;;;;;8.95;4.70;;;21.90;90.10;;;;;;5072671;28;20016;-76
2023/08/01 07:46:51;;;;;;;13.80;5.37;;;21.70;89.80;;;;;;5068725;28;20044;-70
2023/08/01 07:49:17;;;;;;;8.63;4.80;;;21.60;90.30;;;;;;5064752;28;20029;-71
2023/08/01 07:51:42;;;;;;;12.70;5.23;;;22.00;89.90;;;;;;5073545;28;20166;-74
2023/08/01 07:54:08;;;;;;;11.17;5.80;;;21.90;87.60;;;;;;5059565;28;20036;-69
2023/08/01 07:56:34;;;;;;;11.53;5.17;;;22.00;85.70;;;;;;5066283;28;20526;-70
2023/08/01 07:58:59;;;;;;;10.53;4.67;;;22.30;88.50;;;;;;5074047;28;20562;-72
2023/08/01 08:01:25;;;;;;;9.97;4.60;;;22.60;84.60;;;;;;5069214;28;20043;-76
2023/08/01 08:03:51;;;;;;;8.03;4.70;;;23.20;84.70;;;;;;5064252;28;20056;-71
2023/08/01 08:06:16;;;;;;;8.02;4.72;;;23.60;80.80;;;;;;5071230;28;20040;-72
2023/08/01 08:08:42;;;;;;;9.50;5.03;;;23.60;81.50;;;;;;5071020;28;20028;-72
2023/08/01 08:11:07;;;;;;;6.53;4.53;;;23.60;84.40;;;;;;5067188;28;20286;-75
2023/08/01 08:13:33;;;;;;;7.43;5.10;;;23.80;80.10;;;;;;5070223;28;20029;-74
2023/08/01 08:15:59;;;;;;;11.67;4.93;;;23.50;89.20;;;;;;5061609;28;20106;-76
2023/08/01 08:18:27;;;;;;;11.03;5.50;;;23.80;85.30;;;;;;5065132;28;20032;-76
2023/08/01 08:20:53;;;;;;;9.57;5.25;;;24.20;87.20;;;;;;5064940;28;20559;-72
2023/08/01 08:23:19;;;;;;;11.43;4.63;;;23.90;81.20;;;;;;5066593;28;20115;-68
2023/08/01 08:25:46;;;;;;;8.10;5.23;;;23.90;83.30;;;;;;5071128;28;20040;-71
2023/08/01 08:28:13;;;;;;;9.95;4.78;;;23.80;79.70;;;;;;5074971;28;20607;-67
2023/08/01 08:30:39;;;;;;;11.75;5.38;;;23.70;81.60;;;;;;5073305;28;20032;-68
2023/08/01 08:33:06;;;;;;;8.65;4.55;;;24.10;81.20;;;;;;5062633;28;20032;-67
2023/08/01 08:35:35;;;;;;;7.72;4.78;;;24.70;82.00;;;;;;5066757;28;20040;-68
2023/08/01 08:38:03;;;;;;;13.50;4.90;;;25.20;81.20;;;;;;5066494;28;20063;-67
2023/08/01 08:40:31;;;;;;;9.90;5.20;;;25.40;76.80;;;;;;5067779;28;20029;-70
2023/08/01 08:43:03;;;;;;;11.13;5.57;;;25.60;78.20;;;;;;5059735;28;20484;-73
2023/08/01 08:45:33;;;;;;;11.63;5.57;;;25.60;77.90;;;;;;5065759;28;20048;-77
2023/08/01 08:48:08;;;;;;;11.13;5.53;;;25.40;75.90;;;;;;5062295;28;20035;-75
2023/08/01 08:50:35;;;;;;;12.32;5.97;;;24.70;75.70;;;;;;5065116;28;20108;-67
2023/08/01 08:53:02;;;;;;;13.50;6.43;;;24.60;84.00;;;;;;5052420;28;20063;-67
2023/08/01 08:55:28;;;;;;;16.70;6.70;;;24.70;81.10;;;;;;5064427;28;20039;-70
2023/08/01 08:57:55;;;;;;;13.02;7.82;;;25.00;83.30;;;;;;5065958;28;20416;-70
2023/08/01 09:00:21;;;;;;;13.75;7.22;;;25.00;78.20;;;;;;5065035;28;20064;-70
2023/08/01 09:02:47;;;;;;;6.07;3.72;;;25.50;80.60;;;;;;5067295;28;20020;-72
2023/08/01 09:05:13;;;;;;;4.60;3.60;;;25.80;72.30;;;;;;5065877;28;20051;-71
2023/08/01 09:07:41;;;;;;;4.68;3.47;;;25.50;71.50;;;;;;5064812;28;20389;-69
2023/08/01 09:10:08;;;;;;;7.60;3.47;;;25.60;72.70;;;;;;5068304;28;20503;-74
2023/08/01 09:12:35;;;;;;;6.80;3.15;;;25.70;70.70;;;;;;5071290;28;20025;-75
2023/08/01 09:15:01;;;;;;;11.60;3.97;;;25.90;70.70;;;;;;5061855;28;20031;-74
2023/08/01 09:17:26;;;;;;;5.32;3.58;;;26.00;74.60;;;;;;5057113;28;20484;-76
2023/08/01 09:20:07;;;;;;;8.00;3.47;;;26.10;71.90;;;;;;5050363;28;20071;-71
2023/08/01 09:22:46;;;;;;;8.95;3.42;;;25.80;70.40;;;;;;5062801;28;20841;-76
2023/08/01 09:25:13;;;;;;;13.43;3.55;;;26.10;70.90;;;;;;5065053;28;20086;-75
2023/08/01 09:27:38;;;;;;;8.93;3.22;;;26.20;70.50;;;;;;5066154;28;20085;-74
2023/08/01 09:30:13;;;;;;;5.88;3.35;;;25.90;68.00;;;;;;5067890;28;20040;-74
2023/08/01 09:32:39;;;;;;;5.70;3.58;;;25.90;68.80;;;;;;5070251;28;20056;-75
2023/08/01 09:35:05;;;;;;;7.38;3.63;;;27.50;70.00;;;;;;5057116;28;20063;-72
2023/08/01 09:37:42;;;;;;;4.20;3.13;;;29.80;65.60;;;;;;5059656;28;20098;-72
2023/08/01 09:40:08;;;;;;;;;;;29.40;61.60;;;;;;5068770;28;20481;-71
2023/08/01 09:42:41;;;;;;;4.13;2.53;;;32.00;60.90;;;;;;5065176;28;19999;-69
2023/08/01 09:45:17;;;;;;;3.78;2.50;;;32.60;55.50;;;;;;5060663;28;20928;-75
2023/08/01 09:47:44;;;;;;;5.07;3.40;;;32.50;58.20;;;;;;5073697;28;20495;-75
2023/08/01 09:50:11;;;;;;;4.63;3.03;;;32.70;58.50;;;;;;5062318;28;20028;-77
2023/08/01 09:52:37;;;;;;;3.33;2.60;;;31.40;58.10;;;;;;5066710;28;20024;-71
2023/08/01 09:55:03;;;;;;;3.10;2.53;;;31.40;56.60;;;;;;5059575;28;20031;-72
2023/08/01 09:57:30;;;;;;;;;;;31.50;59.40;;;;;;5062402;28;20389;-68
2023/08/01 09:59:59;;;;;;;5.13;3.08;;;31.80;57.30;;;;;;5064458;28;19911;-71
2023/08/01 10:02:29;;;;;;;4.25;2.83;;;32.30;55.40;;;;;;5057378;28;20032;-72
2023/08/01 10:04:57;;;;;;;5.32;3.00;;;32.70;56.50;;;;;;5054049;28;20567;-72
2023/08/01 10:07:30;;;;;;;4.03;2.90;;;31.60;56.40;;;;;;5065127;28;20025;-75
2023/08/01 10:09:59;;;;;;;3.97;2.80;;;31.70;56.00;;;;;;5057392;28;20033;-73
2023/08/01 10:12:27;;;;;;;6.55;2.75;;;32.40;55.80;;;;;;5059456;28;20021;-73
2023/08/01 10:14:54;;;;;;;4.43;3.10;;;31.50;57.40;;;;;;5068340;28;20552;-73
2023/08/01 10:17:22;;;;;;;3.47;2.75;;;32.40;56.50;;;;;;5070357;28;20414;-72
2023/08/01 10:19:49;;;;;;;3.85;2.67;;;31.50;56.10;;;;;;5068773;28;20085;-70
2023/08/01 10:22:15;;;;;;;4.93;2.33;;;30.80;58.20;;;;;;5063511;28;20085;-73
2023/08/01 10:24:42;;;;;;;6.30;2.30;;;30.70;59.50;;;;;;5068755;28;20041;-74
2023/08/01 10:27:26;;;;;;;4.63;2.40;;;30.00;60.10;;;;;;5073145;28;20044;-73
2023/08/01 10:30:00;;;;;;;4.43;2.83;;;29.70;58.00;;;;;;5068318;28;20029;-73
2023/08/01 10:32:43;;;;;;;4.10;3.05;;;31.30;55.30;;;;;;5066109;28;20127;-69
2023/08/01 10:35:09;;;;;;;4.57;2.92;;;33.10;54.80;;;;;;5068333;28;20078;-69
2023/08/01 10:37:41;;;;;;;7.07;2.67;;;31.70;55.70;;;;;;5062700;28;20415;-73
2023/08/01 10:40:08;;;;;;;6.30;3.13;;;30.80;57.00;;;;;;5063920;28;20037;-75
2023/08/01 10:42:39;;;;;;;;;;;29.80;57.70;;;;;;5065906;28;20123;-74
2023/08/01 10:45:05;;;;;;;3.47;2.45;;;29.80;57.10;;;;;;5068817;28;19920;-75
2023/08/01 10:47:31;;;;;;;;;;;29.20;58.80;;;;;;5068105;28;20036;-74
2023/08/01 10:49:57;;;;;;;6.80;2.83;;;28.60;61.20;;;;;;5068849;28;20363;-75
2023/08/01 10:52:27;;;;;;;4.88;2.75;;;28.20;61.80;;;;;;5063621;28;20111;-75
2023/08/01 10:55:01;;;;;;;4.45;2.97;;;28.60;62.30;;;;;;5054113;28;20046;-75
2023/08/01 10:57:35;;;;;;;4.68;2.60;;;29.60;61.70;;;;;;5063232;28;20035;-76
2023/08/01 11:00:03;;;;;;;3.75;2.58;;;30.70;60.10;;;;;;5064554;28;20024;-75
2023/08/01 11:02:30;;;;;;;3.67;2.17;;;30.20;60.30;;;;;;5065956;28;20035;-74
2023/08/01 11:05:00;;;;;;;4.82;2.42;;;30.40;59.50;;;;;;5062077;28;20033;-75
2023/08/01 11:07:26;;;;;;;7.25;2.90;;;30.60;59.60;;;;;;5043961;28;20040;-74
2023/08/01 11:10:12;;;;;;;4.10;2.45;;;30.20;59.80;;;;;;5069045;28;20488;-74
2023/08/01 11:12:42;;;;;;;3.78;2.03;;;29.50;60.70;;;;;;5050611;28;20049;-75
2023/08/01 11:15:11;;;;;;;3.38;2.28;;;29.30;60.80;;;;;;5059386;28;20040;-74
2023/08/01 11:17:38;;;;;;;3.28;2.55;;;29.50;61.20;;;;;;5072383;28;20419;-74
2023/08/01 11:20:11;;;;;;;5.32;2.67;;;29.70;60.70;;;;;;5066022;28;20032;-74
2023/08/01 11:22:38;;;;;;;5.95;2.85;;;29.80;60.10;;;;;;5065430;28;20059;-75
2023/08/01 11:25:05;;;;;;;4.90;3.10;;;29.10;60.40;;;;;;5067736;28;20055;-74
2023/08/01 11:27:31;;;;;;;6.88;3.20;;;29.40;62.80;;;;;;5073038;28;20040;-75
2023/08/01 11:29:56;;;;;;;4.50;2.53;;;30.00;60.10;;;;;;5066633;28;20027;-74
2023/08/01 11:32:36;;;;;;;5.43;2.72;;;30.10;59.60;;;;;;5065096;28;20400;-74
2023/08/01 11:35:02;;;;;;;4.75;2.95;;;29.90;59.90;;;;;;5060484;28;20080;-73
2023/08/01 11:37:29;;;;;;;4.78;2.30;;;29.70;59.70;;;;;;5062865;28;20036;-74
2023/08/01 11:39:55;;;;;;;3.63;2.28;;;29.80;60.70;;;;;;5063509;28;20392;-75
2023/08/01 11:42:21;;;;;;;6.20;2.97;;;29.30;61.90;;;;;;5044617;28;20020;-75
2023/08/01 11:44:46;;;;;;;4.03;2.50;;;29.60;61.10;;;;;;5063550;28;20039;-74
2023/08/01 11:47:17;;;;;;;7.28;2.90;;;29.10;61.80;;;;;;5067802;28;20032;-73
2023/08/01 11:49:47;;;;;;;3.83;2.55;;;29.40;61.30;;;;;;5060799;28;20545;-74
2023/08/01 11:52:26;;;;;;;4.90;2.65;;;29.00;60.60;;;;;;5065718;28;20170;-74
2023/08/01 11:54:54;;;;;;;3.58;2.42;;;29.50;62.40;;;;;;5069699;28;20024;-74
2023/08/01 11:57:23;;;;;;;3.47;2.25;;;30.30;61.70;;;;;;5061033;28;20028;-74
2023/08/01 11:59:51;;;;;;;4.32;2.33;;;30.30;59.90;;;;;;5050078;28;20036;-74
2023/08/01 12:02:31;;;;;;;3.10;2.22;;;30.60;61.40;;;;;;5070613;28;20116;-74
2023/08/01 12:04:57;;;;;;;4.28;2.35;;;30.60;61.40;;;;;;5059659;28;20028;-74
2023/08/01 12:07:25;;;;;;;4.15;2.40;;;30.30;61.70;;;;;;5044960;28;20763;-74
2023/08/01 12:10:00;;;;;;;3.92;2.15;;;29.60;60.30;;;;;;5067879;28;20028;-73
2023/08/01 12:12:27;;;;;;;5.30;2.45;;;28.90;61.10;;;;;;5065670;28;20106;-73
2023/08/01 12:14:54;;;;;;;3.50;2.58;;;29.10;62.10;;;;;;5066045;28;20032;-73
2023/08/01 12:17:20;;;;;;;5.28;2.50;;;29.40;61.20;;;;;;5067380;28;20078;-73
2023/08/01 12:19:46;;;;;;;3.75;2.33;;;30.00;63.00;;;;;;5076234;28;20024;-73
2023/08/01 12:22:12;;;;;;;4.03;2.13;;;30.10;62.10;;;;;;5062789;28;20108;-73
2023/08/01 12:24:38;;;;;;;4.65;2.60;;;30.10;61.20;;;;;;5072266;28;20415;-73
2023/08/01 12:27:12;;;;;;;3.67;2.45;;;30.20;60.80;;;;;;5052907;28;20041;-73
2023/08/01 12:29:38;;;;;;;3.47;2.40;;;30.50;62.00;;;;;;5063495;28;20016;-73
2023/08/01 12:32:04;;;;;;;2.35;2.15;;;30.30;60.00;;;;;;5058194;28;20870;-73
2023/08/01 12:34:30;;;;;;;3.13;2.03;;;30.40;61.20;;;;;;5066025;28;20465;-74
2023/08/01 12:36:55;;;;;;;3.20;2.30;;;30.50;60.30;;;;;;5061189;28;20040;-73
2023/08/01 12:39:21;;;;;;;2.90;2.20;;;30.50;59.70;;;;;;5060924;28;20032;-73
2023/08/01 12:41:46;;;;;;;5.95;2.35;;;30.70;59.70;;;;;;5072451;28;20031;-72
2023/08/01 12:44:15;;;;;;;4.15;2.40;;;30.40;57.90;;;;;;5064768;28;20048;-74